Bilder 1

Dies ist eine Bilderseite.

Test

test article

Seite 3.3

Seite 3.3
[Quelle: ADDS]
METAR
ETNN 290120Z 21003KT 9999 M04/M05 Q1030 BLU+ =
TAF
SR / SS: 07:13 / 16:24 UTC (ETNN 2023-01-29)

Seite 3.2

Seite 3.2

Seite 3.1

Seite 3.1